sensor_id;sensor_type;location;lat;lon;timestamp;P1;P2;P0
47982;PMS5003;33751;50.816;-1.214;2023-04-09T00:01:03;8;8;
47982;PMS5003;33751;50.816;-1.214;2023-04-09T00:03:30;16;9;
47982;PMS5003;33751;50.816;-1.214;2023-04-09T00:05:57;10;8;
47982;PMS5003;33751;50.816;-1.214;2023-04-09T00:08:25;9;8;
47982;PMS5003;33751;50.816;-1.214;2023-04-09T00:10:51;8;8;
47982;PMS5003;33751;50.816;-1.214;2023-04-09T00:13:19;12;12;
47982;PMS5003;33751;50.816;-1.214;2023-04-09T00:15:46;8;8;
47982;PMS5003;33751;50.816;-1.214;2023-04-09T00:18:13;9;7;
47982;PMS5003;33751;50.816;-1.214;2023-04-09T00:20:41;10;10;
47982;PMS5003;33751;50.816;-1.214;2023-04-09T00:23:09;8;8;
47982;PMS5003;33751;50.816;-1.214;2023-04-09T00:25:36;9;8;
47982;PMS5003;33751;50.816;-1.214;2023-04-09T00:28:02;7;7;
47982;PMS5003;33751;50.816;-1.214;2023-04-09T00:30:29;6;6;
47982;PMS5003;33751;50.816;-1.214;2023-04-09T00:32:56;8;8;
47982;PMS5003;33751;50.816;-1.214;2023-04-09T00:35:23;6;6;
47982;PMS5003;33751;50.816;-1.214;2023-04-09T00:37:50;7;7;
47982;PMS5003;33751;50.816;-1.214;2023-04-09T00:40:16;9;8;
47982;PMS5003;33751;50.816;-1.214;2023-04-09T00:42:43;7;7;
47982;PMS5003;33751;50.816;-1.214;2023-04-09T00:45:10;10;9;
47982;PMS5003;33751;50.816;-1.214;2023-04-09T00:47:37;9;7;
47982;PMS5003;33751;50.816;-1.214;2023-04-09T00:50:04;15;8;
47982;PMS5003;33751;50.816;-1.214;2023-04-09T00:52:31;9;9;
47982;PMS5003;33751;50.816;-1.214;2023-04-09T00:54:59;11;9;
47982;PMS5003;33751;50.816;-1.214;2023-04-09T00:57:29;16;10;
47982;PMS5003;33751;50.816;-1.214;2023-04-09T00:59:56;9;9;
47982;PMS5003;33751;50.816;-1.214;2023-04-09T01:02:22;9;8;
47982;PMS5003;33751;50.816;-1.214;2023-04-09T01:04:49;7;7;
47982;PMS5003;33751;50.816;-1.214;2023-04-09T01:07:19;12;8;
47982;PMS5003;33751;50.816;-1.214;2023-04-09T01:09:57;7;7;
47982;PMS5003;33751;50.816;-1.214;2023-04-09T01:12:31;9;8;
47982;PMS5003;33751;50.816;-1.214;2023-04-09T01:15:03;13;9;
47982;PMS5003;33751;50.816;-1.214;2023-04-09T01:17:33;8;8;
47982;PMS5003;33751;50.816;-1.214;2023-04-09T01:20:08;9;6;
47982;PMS5003;33751;50.816;-1.214;2023-04-09T01:22:41;6;6;
47982;PMS5003;33751;50.816;-1.214;2023-04-09T01:25:21;8;6;
47982;PMS5003;33751;50.816;-1.214;2023-04-09T01:28:07;7;7;
47982;PMS5003;33751;50.816;-1.214;2023-04-09T01:30:44;5;5;
47982;PMS5003;33751;50.816;-1.214;2023-04-09T01:33:14;7;7;
47982;PMS5003;33751;50.816;-1.214;2023-04-09T01:35:42;8;6;
47982;PMS5003;33751;50.816;-1.214;2023-04-09T01:38:11;5;5;
47982;PMS5003;33751;50.816;-1.214;2023-04-09T01:40:41;8;7;
47982;PMS5003;33751;50.816;-1.214;2023-04-09T01:43:09;7;7;
47982;PMS5003;33751;50.816;-1.214;2023-04-09T01:45:37;8;8;
47982;PMS5003;33751;50.816;-1.214;2023-04-09T01:48:05;7;7;
47982;PMS5003;33751;50.816;-1.214;2023-04-09T01:50:33;5;5;
47982;PMS5003;33751;50.816;-1.214;2023-04-09T01:53:00;7;7;
47982;PMS5003;33751;50.816;-1.214;2023-04-09T01:55:28;7;7;
47982;PMS5003;33751;50.816;-1.214;2023-04-09T01:57:55;9;8;
47982;PMS5003;33751;50.816;-1.214;2023-04-09T02:00:22;9;8;
47982;PMS5003;33751;50.816;-1.214;2023-04-09T02:02:52;6;6;
47982;PMS5003;33751;50.816;-1.214;2023-04-09T02:05:31;8;8;
47982;PMS5003;33751;50.816;-1.214;2023-04-09T02:08:04;4;4;
47982;PMS5003;33751;50.816;-1.214;2023-04-09T02:10:33;5;5;
47982;PMS5003;33751;50.816;-1.214;2023-04-09T02:13:02;12;6;
47982;PMS5003;33751;50.816;-1.214;2023-04-09T02:15:30;4;4;
47982;PMS5003;33751;50.816;-1.214;2023-04-09T02:17:59;5;5;
47982;PMS5003;33751;50.816;-1.214;2023-04-09T02:20:27;7;7;
47982;PMS5003;33751;50.816;-1.214;2023-04-09T02:22:53;7;5;
47982;PMS5003;33751;50.816;-1.214;2023-04-09T02:25:21;5;5;
47982;PMS5003;33751;50.816;-1.214;2023-04-09T02:27:48;7;7;
47982;PMS5003;33751;50.816;-1.214;2023-04-09T02:30:14;9;6;
47982;PMS5003;33751;50.816;-1.214;2023-04-09T02:32:41;4;4;
47982;PMS5003;33751;50.816;-1.214;2023-04-09T02:35:08;6;6;
47982;PMS5003;33751;50.816;-1.214;2023-04-09T02:37:34;5;5;
47982;PMS5003;33751;50.816;-1.214;2023-04-09T02:40:01;6;6;
47982;PMS5003;33751;50.816;-1.214;2023-04-09T02:42:28;6;6;
47982;PMS5003;33751;50.816;-1.214;2023-04-09T02:44:55;5;5;
47982;PMS5003;33751;50.816;-1.214;2023-04-09T02:47:21;6;5;
47982;PMS5003;33751;50.816;-1.214;2023-04-09T02:49:48;4;4;
47982;PMS5003;33751;50.816;-1.214;2023-04-09T02:52:15;6;6;
47982;PMS5003;33751;50.816;-1.214;2023-04-09T02:54:41;5;5;
47982;PMS5003;33751;50.816;-1.214;2023-04-09T02:57:08;5;4;
47982;PMS5003;33751;50.816;-1.214;2023-04-09T02:59:35;8;6;
47982;PMS5003;33751;50.816;-1.214;2023-04-09T03:02:01;3;3;
47982;PMS5003;33751;50.816;-1.214;2023-04-09T03:04:28;5;5;
47982;PMS5003;33751;50.816;-1.214;2023-04-09T03:06:55;5;5;
47982;PMS5003;33751;50.816;-1.214;2023-04-09T03:09:22;6;6;
47982;PMS5003;33751;50.816;-1.214;2023-04-09T03:11:49;4;4;
47982;PMS5003;33751;50.816;-1.214;2023-04-09T03:14:15;4;4;
47982;PMS5003;33751;50.816;-1.214;2023-04-09T03:16:42;4;4;
47982;PMS5003;33751;50.816;-1.214;2023-04-09T03:19:08;5;5;
47982;PMS5003;33751;50.816;-1.214;2023-04-09T03:21:35;4;4;
47982;PMS5003;33751;50.816;-1.214;2023-04-09T03:24:02;7;7;
47982;PMS5003;33751;50.816;-1.214;2023-04-09T03:26:29;7;7;
47982;PMS5003;33751;50.816;-1.214;2023-04-09T03:28:55;4;4;
47982;PMS5003;33751;50.816;-1.214;2023-04-09T03:31:22;5;5;
47982;PMS5003;33751;50.816;-1.214;2023-04-09T03:33:49;4;4;
47982;PMS5003;33751;50.816;-1.214;2023-04-09T03:36:16;4;4;
47982;PMS5003;33751;50.816;-1.214;2023-04-09T03:38:42;6;4;
47982;PMS5003;33751;50.816;-1.214;2023-04-09T03:41:09;5;5;
47982;PMS5003;33751;50.816;-1.214;2023-04-09T03:43:36;6;4;
47982;PMS5003;33751;50.816;-1.214;2023-04-09T03:46:10;4;4;
47982;PMS5003;33751;50.816;-1.214;2023-04-09T03:48:37;5;4;
47982;PMS5003;33751;50.816;-1.214;2023-04-09T03:51:03;5;4;
47982;PMS5003;33751;50.816;-1.214;2023-04-09T03:53:30;3;3;
47982;PMS5003;33751;50.816;-1.214;2023-04-09T03:55:57;5;5;
47982;PMS5003;33751;50.816;-1.214;2023-04-09T03:58:23;7;5;
47982;PMS5003;33751;50.816;-1.214;2023-04-09T04:00:50;3;3;
47982;PMS5003;33751;50.816;-1.214;2023-04-09T04:03:16;4;4;
47982;PMS5003;33751;50.816;-1.214;2023-04-09T04:05:43;5;5;
47982;PMS5003;33751;50.816;-1.214;2023-04-09T04:08:10;4;4;
47982;PMS5003;33751;50.816;-1.214;2023-04-09T04:10:37;3;2;
47982;PMS5003;33751;50.816;-1.214;2023-04-09T04:13:05;3;3;
47982;PMS5003;33751;50.816;-1.214;2023-04-09T04:15:32;4;4;
47982;PMS5003;33751;50.816;-1.214;2023-04-09T04:17:58;4;4;
47982;PMS5003;33751;50.816;-1.214;2023-04-09T04:20:25;3;3;
47982;PMS5003;33751;50.816;-1.214;2023-04-09T04:22:51;5;4;
47982;PMS5003;33751;50.816;-1.214;2023-04-09T04:25:18;6;5;
47982;PMS5003;33751;50.816;-1.214;2023-04-09T04:27:44;5;4;
47982;PMS5003;33751;50.816;-1.214;2023-04-09T04:30:11;5;5;
47982;PMS5003;33751;50.816;-1.214;2023-04-09T04:32:37;3;3;
47982;PMS5003;33751;50.816;-1.214;2023-04-09T04:35:04;6;6;
47982;PMS5003;33751;50.816;-1.214;2023-04-09T04:37:31;4;4;
47982;PMS5003;33751;50.816;-1.214;2023-04-09T04:39:59;4;4;
47982;PMS5003;33751;50.816;-1.214;2023-04-09T04:42:27;5;5;
47982;PMS5003;33751;50.816;-1.214;2023-04-09T04:44:53;5;5;
47982;PMS5003;33751;50.816;-1.214;2023-04-09T04:47:20;3;3;
47982;PMS5003;33751;50.816;-1.214;2023-04-09T04:49:46;4;4;
47982;PMS5003;33751;50.816;-1.214;2023-04-09T04:52:13;7;3;
47982;PMS5003;33751;50.816;-1.214;2023-04-09T04:54:40;5;5;
47982;PMS5003;33751;50.816;-1.214;2023-04-09T04:57:07;5;5;
47982;PMS5003;33751;50.816;-1.214;2023-04-09T04:59:35;5;5;
47982;PMS5003;33751;50.816;-1.214;2023-04-09T05:02:02;4;4;
47982;PMS5003;33751;50.816;-1.214;2023-04-09T05:04:29;5;5;
47982;PMS5003;33751;50.816;-1.214;2023-04-09T05:06:55;5;5;
47982;PMS5003;33751;50.816;-1.214;2023-04-09T05:09:22;4;4;
47982;PMS5003;33751;50.816;-1.214;2023-04-09T05:11:48;5;5;
47982;PMS5003;33751;50.816;-1.214;2023-04-09T05:14:15;4;4;
47982;PMS5003;33751;50.816;-1.214;2023-04-09T05:16:41;2;2;
47982;PMS5003;33751;50.816;-1.214;2023-04-09T05:19:08;4;4;
47982;PMS5003;33751;50.816;-1.214;2023-04-09T05:21:34;5;4;
47982;PMS5003;33751;50.816;-1.214;2023-04-09T05:24:01;5;5;
47982;PMS5003;33751;50.816;-1.214;2023-04-09T05:26:28;5;5;
47982;PMS5003;33751;50.816;-1.214;2023-04-09T05:28:56;6;6;
47982;PMS5003;33751;50.816;-1.214;2023-04-09T05:31:23;5;5;
47982;PMS5003;33751;50.816;-1.214;2023-04-09T05:33:50;5;5;
47982;PMS5003;33751;50.816;-1.214;2023-04-09T05:36:16;3;3;
47982;PMS5003;33751;50.816;-1.214;2023-04-09T05:38:45;5;5;
47982;PMS5003;33751;50.816;-1.214;2023-04-09T05:41:13;5;5;
47982;PMS5003;33751;50.816;-1.214;2023-04-09T05:43:40;4;4;
47982;PMS5003;33751;50.816;-1.214;2023-04-09T05:46:06;4;4;
47982;PMS5003;33751;50.816;-1.214;2023-04-09T05:48:34;4;4;
47982;PMS5003;33751;50.816;-1.214;2023-04-09T05:51:00;4;4;
47982;PMS5003;33751;50.816;-1.214;2023-04-09T05:53:28;4;4;
47982;PMS5003;33751;50.816;-1.214;2023-04-09T05:55:55;6;6;
47982;PMS5003;33751;50.816;-1.214;2023-04-09T05:58:23;8;7;
47982;PMS5003;33751;50.816;-1.214;2023-04-09T06:00:50;3;3;
47982;PMS5003;33751;50.816;-1.214;2023-04-09T06:03:16;7;6;
47982;PMS5003;33751;50.816;-1.214;2023-04-09T06:05:43;4;4;
47982;PMS5003;33751;50.816;-1.214;2023-04-09T06:08:10;4;4;
47982;PMS5003;33751;50.816;-1.214;2023-04-09T06:10:37;5;5;
47982;PMS5003;33751;50.816;-1.214;2023-04-09T06:13:03;7;6;
47982;PMS5003;33751;50.816;-1.214;2023-04-09T06:15:30;6;5;
47982;PMS5003;33751;50.816;-1.214;2023-04-09T06:17:56;6;5;
47982;PMS5003;33751;50.816;-1.214;2023-04-09T06:20:23;8;8;
47982;PMS5003;33751;50.816;-1.214;2023-04-09T06:22:50;7;6;
47982;PMS5003;33751;50.816;-1.214;2023-04-09T06:25:16;9;8;
47982;PMS5003;33751;50.816;-1.214;2023-04-09T06:27:43;6;6;
47982;PMS5003;33751;50.816;-1.214;2023-04-09T06:30:10;7;7;
47982;PMS5003;33751;50.816;-1.214;2023-04-09T06:32:37;5;5;
47982;PMS5003;33751;50.816;-1.214;2023-04-09T06:35:05;6;6;
47982;PMS5003;33751;50.816;-1.214;2023-04-09T06:37:32;6;6;
47982;PMS5003;33751;50.816;-1.214;2023-04-09T06:39:59;11;5;
47982;PMS5003;33751;50.816;-1.214;2023-04-09T06:42:26;7;6;
47982;PMS5003;33751;50.816;-1.214;2023-04-09T06:44:52;8;8;
47982;PMS5003;33751;50.816;-1.214;2023-04-09T06:47:19;8;8;
47982;PMS5003;33751;50.816;-1.214;2023-04-09T06:49:45;7;6;
47982;PMS5003;33751;50.816;-1.214;2023-04-09T06:52:12;8;8;
47982;PMS5003;33751;50.816;-1.214;2023-04-09T06:54:39;8;6;
47982;PMS5003;33751;50.816;-1.214;2023-04-09T06:57:06;6;6;
47982;PMS5003;33751;50.816;-1.214;2023-04-09T06:59:33;6;6;
47982;PMS5003;33751;50.816;-1.214;2023-04-09T07:02:00;6;6;
47982;PMS5003;33751;50.816;-1.214;2023-04-09T07:04:26;7;5;
47982;PMS5003;33751;50.816;-1.214;2023-04-09T07:06:53;9;9;
47982;PMS5003;33751;50.816;-1.214;2023-04-09T07:09:19;6;5;
47982;PMS5003;33751;50.816;-1.214;2023-04-09T07:11:46;7;7;
47982;PMS5003;33751;50.816;-1.214;2023-04-09T07:14:12;8;8;
47982;PMS5003;33751;50.816;-1.214;2023-04-09T07:16:39;9;7;
47982;PMS5003;33751;50.816;-1.214;2023-04-09T07:19:05;7;7;
47982;PMS5003;33751;50.816;-1.214;2023-04-09T07:21:32;7;7;
47982;PMS5003;33751;50.816;-1.214;2023-04-09T07:23:58;10;10;
47982;PMS5003;33751;50.816;-1.214;2023-04-09T07:26:25;7;6;
47982;PMS5003;33751;50.816;-1.214;2023-04-09T07:28:51;7;7;
47982;PMS5003;33751;50.816;-1.214;2023-04-09T07:31:18;6;6;
47982;PMS5003;33751;50.816;-1.214;2023-04-09T07:33:44;7;7;
47982;PMS5003;33751;50.816;-1.214;2023-04-09T07:36:11;5;5;
47982;PMS5003;33751;50.816;-1.214;2023-04-09T07:38:37;6;6;
47982;PMS5003;33751;50.816;-1.214;2023-04-09T07:41:04;6;6;
47982;PMS5003;33751;50.816;-1.214;2023-04-09T07:43:30;8;8;
47982;PMS5003;33751;50.816;-1.214;2023-04-09T07:45:57;10;10;
47982;PMS5003;33751;50.816;-1.214;2023-04-09T07:48:24;11;10;
47982;PMS5003;33751;50.816;-1.214;2023-04-09T07:50:50;12;9;
47982;PMS5003;33751;50.816;-1.214;2023-04-09T07:53:17;13;11;
47982;PMS5003;33751;50.816;-1.214;2023-04-09T07:55:44;10;10;
47982;PMS5003;33751;50.816;-1.214;2023-04-09T07:58:10;16;14;
47982;PMS5003;33751;50.816;-1.214;2023-04-09T08:00:37;20;20;
47982;PMS5003;33751;50.816;-1.214;2023-04-09T08:03:04;20;19;
47982;PMS5003;33751;50.816;-1.214;2023-04-09T08:05:31;19;19;
47982;PMS5003;33751;50.816;-1.214;2023-04-09T08:07:58;20;16;
47982;PMS5003;33751;50.816;-1.214;2023-04-09T08:10:25;22;20;
47982;PMS5003;33751;50.816;-1.214;2023-04-09T08:12:52;17;17;
47982;PMS5003;33751;50.816;-1.214;2023-04-09T08:15:21;30;22;
47982;PMS5003;33751;50.816;-1.214;2023-04-09T08:17:47;29;21;
47982;PMS5003;33751;50.816;-1.214;2023-04-09T08:20:14;15;14;
47982;PMS5003;33751;50.816;-1.214;2023-04-09T08:22:41;15;13;
47982;PMS5003;33751;50.816;-1.214;2023-04-09T08:25:08;17;17;
47982;PMS5003;33751;50.816;-1.214;2023-04-09T08:27:35;16;16;
47982;PMS5003;33751;50.816;-1.214;2023-04-09T08:30:03;19;14;
47982;PMS5003;33751;50.816;-1.214;2023-04-09T08:32:30;15;15;
47982;PMS5003;33751;50.816;-1.214;2023-04-09T08:34:57;11;11;
47982;PMS5003;33751;50.816;-1.214;2023-04-09T08:37:24;15;15;
47982;PMS5003;33751;50.816;-1.214;2023-04-09T08:39:51;19;13;
47982;PMS5003;33751;50.816;-1.214;2023-04-09T08:42:18;15;15;
47982;PMS5003;33751;50.816;-1.214;2023-04-09T08:44:47;20;18;
47982;PMS5003;33751;50.816;-1.214;2023-04-09T08:47:13;17;15;
47982;PMS5003;33751;50.816;-1.214;2023-04-09T08:49:40;14;14;
47982;PMS5003;33751;50.816;-1.214;2023-04-09T08:52:07;15;15;
47982;PMS5003;33751;50.816;-1.214;2023-04-09T08:54:34;13;12;
47982;PMS5003;33751;50.816;-1.214;2023-04-09T08:57:03;14;11;
47982;PMS5003;33751;50.816;-1.214;2023-04-09T08:59:31;24;18;
47982;PMS5003;33751;50.816;-1.214;2023-04-09T09:02:06;14;13;
47982;PMS5003;33751;50.816;-1.214;2023-04-09T09:04:42;15;15;
47982;PMS5003;33751;50.816;-1.214;2023-04-09T09:07:09;13;12;
47982;PMS5003;33751;50.816;-1.214;2023-04-09T09:09:40;16;13;
47982;PMS5003;33751;50.816;-1.214;2023-04-09T09:12:28;20;14;
47982;PMS5003;33751;50.816;-1.214;2023-04-09T09:14:56;14;13;
47982;PMS5003;33751;50.816;-1.214;2023-04-09T09:17:24;18;13;
47982;PMS5003;33751;50.816;-1.214;2023-04-09T09:19:51;11;10;
47982;PMS5003;33751;50.816;-1.214;2023-04-09T09:22:18;13;11;
47982;PMS5003;33751;50.816;-1.214;2023-04-09T09:24:45;16;15;
47982;PMS5003;33751;50.816;-1.214;2023-04-09T09:27:13;14;13;
47982;PMS5003;33751;50.816;-1.214;2023-04-09T09:29:57;15;15;
47982;PMS5003;33751;50.816;-1.214;2023-04-09T09:32:24;13;13;
47982;PMS5003;33751;50.816;-1.214;2023-04-09T09:34:56;18;15;
47982;PMS5003;33751;50.816;-1.214;2023-04-09T09:37:27;8;8;
47982;PMS5003;33751;50.816;-1.214;2023-04-09T09:39:55;13;13;
47982;PMS5003;33751;50.816;-1.214;2023-04-09T09:42:21;12;11;
47982;PMS5003;33751;50.816;-1.214;2023-04-09T09:44:48;16;11;
47982;PMS5003;33751;50.816;-1.214;2023-04-09T09:47:16;13;13;
47982;PMS5003;33751;50.816;-1.214;2023-04-09T09:49:44;12;12;
47982;PMS5003;33751;50.816;-1.214;2023-04-09T09:52:12;15;14;
47982;PMS5003;33751;50.816;-1.214;2023-04-09T09:54:39;12;11;
47982;PMS5003;33751;50.816;-1.214;2023-04-09T09:57:07;10;10;
47982;PMS5003;33751;50.816;-1.214;2023-04-09T09:59:36;12;10;
47982;PMS5003;33751;50.816;-1.214;2023-04-09T10:02:07;12;11;
47982;PMS5003;33751;50.816;-1.214;2023-04-09T10:04:43;16;10;
47982;PMS5003;33751;50.816;-1.214;2023-04-09T10:07:10;12;12;
47982;PMS5003;33751;50.816;-1.214;2023-04-09T10:09:39;10;10;
47982;PMS5003;33751;50.816;-1.214;2023-04-09T10:12:08;11;9;
47982;PMS5003;33751;50.816;-1.214;2023-04-09T10:14:35;18;13;
47982;PMS5003;33751;50.816;-1.214;2023-04-09T10:17:03;17;13;
47982;PMS5003;33751;50.816;-1.214;2023-04-09T10:19:30;13;12;
47982;PMS5003;33751;50.816;-1.214;2023-04-09T10:22:10;19;9;
47982;PMS5003;33751;50.816;-1.214;2023-04-09T10:24:40;11;11;
47982;PMS5003;33751;50.816;-1.214;2023-04-09T10:27:08;10;10;
47982;PMS5003;33751;50.816;-1.214;2023-04-09T10:29:40;12;12;
47982;PMS5003;33751;50.816;-1.214;2023-04-09T10:32:09;14;11;
47982;PMS5003;33751;50.816;-1.214;2023-04-09T10:34:37;13;11;
47982;PMS5003;33751;50.816;-1.214;2023-04-09T10:37:05;14;14;
47982;PMS5003;33751;50.816;-1.214;2023-04-09T10:39:36;11;10;
47982;PMS5003;33751;50.816;-1.214;2023-04-09T10:42:07;11;10;
47982;PMS5003;33751;50.816;-1.214;2023-04-09T10:44:38;10;10;
47982;PMS5003;33751;50.816;-1.214;2023-04-09T10:47:05;13;12;
47982;PMS5003;33751;50.816;-1.214;2023-04-09T10:49:34;11;11;
47982;PMS5003;33751;50.816;-1.214;2023-04-09T10:52:03;13;11;
47982;PMS5003;33751;50.816;-1.214;2023-04-09T10:54:40;15;14;
47982;PMS5003;33751;50.816;-1.214;2023-04-09T10:57:09;11;11;
47982;PMS5003;33751;50.816;-1.214;2023-04-09T10:59:38;24;18;
47982;PMS5003;33751;50.816;-1.214;2023-04-09T11:02:06;17;15;
47982;PMS5003;33751;50.816;-1.214;2023-04-09T11:04:36;28;18;
47982;PMS5003;33751;50.816;-1.214;2023-04-09T11:07:12;21;17;
47982;PMS5003;33751;50.816;-1.214;2023-04-09T11:09:43;19;15;
47982;PMS5003;33751;50.816;-1.214;2023-04-09T11:12:10;15;15;
47982;PMS5003;33751;50.816;-1.214;2023-04-09T11:14:37;15;15;
47982;PMS5003;33751;50.816;-1.214;2023-04-09T11:17:04;21;15;
47982;PMS5003;33751;50.816;-1.214;2023-04-09T11:19:32;15;14;
47982;PMS5003;33751;50.816;-1.214;2023-04-09T11:22:02;20;18;
47982;PMS5003;33751;50.816;-1.214;2023-04-09T11:24:38;18;16;
47982;PMS5003;33751;50.816;-1.214;2023-04-09T11:27:06;13;11;
47982;PMS5003;33751;50.816;-1.214;2023-04-09T11:29:33;19;14;
47982;PMS5003;33751;50.816;-1.214;2023-04-09T11:32:00;19;19;
47982;PMS5003;33751;50.816;-1.214;2023-04-09T11:34:28;20;15;
47982;PMS5003;33751;50.816;-1.214;2023-04-09T11:36:55;15;15;
47982;PMS5003;33751;50.816;-1.214;2023-04-09T11:39:21;18;18;
47982;PMS5003;33751;50.816;-1.214;2023-04-09T11:41:48;25;18;
47982;PMS5003;33751;50.816;-1.214;2023-04-09T11:44:16;17;16;
47982;PMS5003;33751;50.816;-1.214;2023-04-09T11:46:43;19;17;
47982;PMS5003;33751;50.816;-1.214;2023-04-09T11:49:10;23;18;
47982;PMS5003;33751;50.816;-1.214;2023-04-09T11:51:37;15;14;
47982;PMS5003;33751;50.816;-1.214;2023-04-09T11:54:04;23;20;
47982;PMS5003;33751;50.816;-1.214;2023-04-09T11:56:32;30;22;
47982;PMS5003;33751;50.816;-1.214;2023-04-09T11:59:01;16;15;
47982;PMS5003;33751;50.816;-1.214;2023-04-09T12:01:29;26;20;
47982;PMS5003;33751;50.816;-1.214;2023-04-09T12:03:57;28;24;
47982;PMS5003;33751;50.816;-1.214;2023-04-09T12:06:25;26;25;
47982;PMS5003;33751;50.816;-1.214;2023-04-09T12:08:52;28;27;
47982;PMS5003;33751;50.816;-1.214;2023-04-09T12:11:26;35;24;
47982;PMS5003;33751;50.816;-1.214;2023-04-09T12:13:57;27;23;
47982;PMS5003;33751;50.816;-1.214;2023-04-09T12:16:24;22;22;
47982;PMS5003;33751;50.816;-1.214;2023-04-09T12:18:51;28;24;
47982;PMS5003;33751;50.816;-1.214;2023-04-09T12:21:18;26;23;
47982;PMS5003;33751;50.816;-1.214;2023-04-09T12:23:49;26;25;
47982;PMS5003;33751;50.816;-1.214;2023-04-09T12:26:17;30;28;
47982;PMS5003;33751;50.816;-1.214;2023-04-09T12:28:44;28;25;
47982;PMS5003;33751;50.816;-1.214;2023-04-09T12:31:10;20;18;
47982;PMS5003;33751;50.816;-1.214;2023-04-09T12:33:37;34;26;
47982;PMS5003;33751;50.816;-1.214;2023-04-09T12:36:05;31;24;
47982;PMS5003;33751;50.816;-1.214;2023-04-09T12:38:31;28;24;
47982;PMS5003;33751;50.816;-1.214;2023-04-09T12:40:58;27;25;
47982;PMS5003;33751;50.816;-1.214;2023-04-09T12:43:25;36;26;
47982;PMS5003;33751;50.816;-1.214;2023-04-09T12:45:52;34;25;
47982;PMS5003;33751;50.816;-1.214;2023-04-09T12:48:20;29;29;
47982;PMS5003;33751;50.816;-1.214;2023-04-09T12:50:47;32;30;
47982;PMS5003;33751;50.816;-1.214;2023-04-09T12:53:13;27;26;
47982;PMS5003;33751;50.816;-1.214;2023-04-09T12:55:41;29;29;
47982;PMS5003;33751;50.816;-1.214;2023-04-09T12:58:08;38;28;
47982;PMS5003;33751;50.816;-1.214;2023-04-09T13:00:35;34;25;
47982;PMS5003;33751;50.816;-1.214;2023-04-09T13:03:02;36;31;
47982;PMS5003;33751;50.816;-1.214;2023-04-09T13:05:29;32;28;
47982;PMS5003;33751;50.816;-1.214;2023-04-09T13:07:56;36;27;
47982;PMS5003;33751;50.816;-1.214;2023-04-09T13:10:23;30;26;
47982;PMS5003;33751;50.816;-1.214;2023-04-09T13:12:50;26;25;
47982;PMS5003;33751;50.816;-1.214;2023-04-09T13:15:17;27;27;
47982;PMS5003;33751;50.816;-1.214;2023-04-09T13:17:44;26;26;
47982;PMS5003;33751;50.816;-1.214;2023-04-09T13:20:11;25;22;
47982;PMS5003;33751;50.816;-1.214;2023-04-09T13:22:37;28;25;
47982;PMS5003;33751;50.816;-1.214;2023-04-09T13:25:05;32;24;
47982;PMS5003;33751;50.816;-1.214;2023-04-09T13:27:31;31;23;
47982;PMS5003;33751;50.816;-1.214;2023-04-09T13:29:58;23;22;
47982;PMS5003;33751;50.816;-1.214;2023-04-09T13:32:25;22;22;
47982;PMS5003;33751;50.816;-1.214;2023-04-09T13:34:52;23;23;
47982;PMS5003;33751;50.816;-1.214;2023-04-09T13:37:19;28;21;
47982;PMS5003;33751;50.816;-1.214;2023-04-09T13:39:45;25;18;
47982;PMS5003;33751;50.816;-1.214;2023-04-09T13:42:12;23;21;
47982;PMS5003;33751;50.816;-1.214;2023-04-09T13:44:39;31;26;
47982;PMS5003;33751;50.816;-1.214;2023-04-09T13:47:07;21;19;
47982;PMS5003;33751;50.816;-1.214;2023-04-09T13:49:34;26;19;
47982;PMS5003;33751;50.816;-1.214;2023-04-09T13:52:00;26;18;
47982;PMS5003;33751;50.816;-1.214;2023-04-09T13:54:27;19;17;
47982;PMS5003;33751;50.816;-1.214;2023-04-09T13:56:53;16;16;
47982;PMS5003;33751;50.816;-1.214;2023-04-09T13:59:20;20;19;
47982;PMS5003;33751;50.816;-1.214;2023-04-09T14:01:47;15;15;
47982;PMS5003;33751;50.816;-1.214;2023-04-09T14:04:14;19;19;
47982;PMS5003;33751;50.816;-1.214;2023-04-09T14:06:41;23;16;
47982;PMS5003;33751;50.816;-1.214;2023-04-09T14:09:08;21;18;
47982;PMS5003;33751;50.816;-1.214;2023-04-09T14:11:36;21;16;
47982;PMS5003;33751;50.816;-1.214;2023-04-09T14:14:03;20;18;
47982;PMS5003;33751;50.816;-1.214;2023-04-09T14:16:30;17;16;
47982;PMS5003;33751;50.816;-1.214;2023-04-09T14:18:57;20;17;
47982;PMS5003;33751;50.816;-1.214;2023-04-09T14:21:24;24;18;
47982;PMS5003;33751;50.816;-1.214;2023-04-09T14:23:51;16;16;
47982;PMS5003;33751;50.816;-1.214;2023-04-09T14:26:17;21;19;
47982;PMS5003;33751;50.816;-1.214;2023-04-09T14:28:44;25;18;
47982;PMS5003;33751;50.816;-1.214;2023-04-09T14:31:11;25;19;
47982;PMS5003;33751;50.816;-1.214;2023-04-09T14:33:38;22;19;
47982;PMS5003;33751;50.816;-1.214;2023-04-09T14:36:05;21;18;
47982;PMS5003;33751;50.816;-1.214;2023-04-09T14:38:33;20;19;
47982;PMS5003;33751;50.816;-1.214;2023-04-09T14:41:00;20;18;
47982;PMS5003;33751;50.816;-1.214;2023-04-09T14:43:26;17;16;
47982;PMS5003;33751;50.816;-1.214;2023-04-09T14:45:53;21;18;
47982;PMS5003;33751;50.816;-1.214;2023-04-09T14:48:20;19;19;
47982;PMS5003;33751;50.816;-1.214;2023-04-09T14:50:46;20;19;
47982;PMS5003;33751;50.816;-1.214;2023-04-09T14:53:13;23;20;
47982;PMS5003;33751;50.816;-1.214;2023-04-09T14:55:39;18;16;
47982;PMS5003;33751;50.816;-1.214;2023-04-09T14:58:06;26;20;
47982;PMS5003;33751;50.816;-1.214;2023-04-09T15:00:33;30;21;
47982;PMS5003;33751;50.816;-1.214;2023-04-09T15:03:00;27;21;
47982;PMS5003;33751;50.816;-1.214;2023-04-09T15:05:27;26;22;
47982;PMS5003;33751;50.816;-1.214;2023-04-09T15:07:54;28;24;
47982;PMS5003;33751;50.816;-1.214;2023-04-09T15:10:22;27;23;
47982;PMS5003;33751;50.816;-1.214;2023-04-09T15:12:50;34;24;
47982;PMS5003;33751;50.816;-1.214;2023-04-09T15:15:17;19;19;
47982;PMS5003;33751;50.816;-1.214;2023-04-09T15:17:44;16;14;
47982;PMS5003;33751;50.816;-1.214;2023-04-09T15:20:11;21;19;
47982;PMS5003;33751;50.816;-1.214;2023-04-09T15:22:37;27;22;
47982;PMS5003;33751;50.816;-1.214;2023-04-09T15:25:05;27;23;
47982;PMS5003;33751;50.816;-1.214;2023-04-09T15:27:32;30;24;
47982;PMS5003;33751;50.816;-1.214;2023-04-09T15:29:59;23;23;
47982;PMS5003;33751;50.816;-1.214;2023-04-09T15:32:27;27;23;
47982;PMS5003;33751;50.816;-1.214;2023-04-09T15:34:54;23;23;
47982;PMS5003;33751;50.816;-1.214;2023-04-09T15:37:21;34;24;
47982;PMS5003;33751;50.816;-1.214;2023-04-09T15:39:48;29;22;
47982;PMS5003;33751;50.816;-1.214;2023-04-09T15:42:15;21;19;
47982;PMS5003;33751;50.816;-1.214;2023-04-09T15:44:44;35;25;
47982;PMS5003;33751;50.816;-1.214;2023-04-09T15:47:10;23;21;
47982;PMS5003;33751;50.816;-1.214;2023-04-09T15:49:37;27;23;
47982;PMS5003;33751;50.816;-1.214;2023-04-09T15:52:04;21;18;
47982;PMS5003;33751;50.816;-1.214;2023-04-09T15:54:31;24;22;
47982;PMS5003;33751;50.816;-1.214;2023-04-09T15:56:57;20;18;
47982;PMS5003;33751;50.816;-1.214;2023-04-09T15:59:24;19;17;
47982;PMS5003;33751;50.816;-1.214;2023-04-09T16:01:51;22;19;
47982;PMS5003;33751;50.816;-1.214;2023-04-09T16:04:18;20;20;
47982;PMS5003;33751;50.816;-1.214;2023-04-09T16:06:45;26;20;
47982;PMS5003;33751;50.816;-1.214;2023-04-09T16:09:11;18;18;
47982;PMS5003;33751;50.816;-1.214;2023-04-09T16:11:38;17;16;
47982;PMS5003;33751;50.816;-1.214;2023-04-09T16:14:05;17;15;
47982;PMS5003;33751;50.816;-1.214;2023-04-09T16:16:32;18;15;
47982;PMS5003;33751;50.816;-1.214;2023-04-09T16:18:59;17;17;